Time;durP1;ratioP1;P1;durP2;ratioP2;P2;SDS_P1;SDS_P2;PMS_P1;PMS_P2;Temp;Humidity;BMP_temperature;BMP_pressure;BME280_temperature;BME280_humidity;BME280_pressure;Samples;Min_cycle;Max_cycle;Signal;HPM_P1;HPM_P2
2022/07/30 00:00:21;;;;;;;11.98;6.28;;;;;;;;;;5007268;28;20022;-67
2022/07/30 00:02:49;;;;;;;12.77;6.25;;;;;;;;;;5010917;28;20511;-67
2022/07/30 00:05:15;;;;;;;10.73;5.60;;;;;;;;;;5008180;28;20313;-68
2022/07/30 00:07:41;;;;;;;8.02;5.85;;;;;;;;;;5011134;28;20025;-68
2022/07/30 00:10:08;;;;;;;8.90;5.78;;;;;;;;;;5009435;28;20020;-67
2022/07/30 00:12:34;;;;;;;6.78;5.22;;;;;;;;;;5012072;28;20567;-67
2022/07/30 00:15:00;;;;;;;9.02;5.78;;;;;;;;;;5009085;28;20032;-67
2022/07/30 00:17:26;;;;;;;9.85;5.70;;;;;;;;;;5005691;28;21199;-67
2022/07/30 00:19:52;;;;;;;9.18;5.38;;;;;;;;;;5011440;28;20021;-68
2022/07/30 00:22:18;;;;;;;10.90;5.65;;;;;;;;;;5008643;28;20022;-68
2022/07/30 00:24:44;;;;;;;7.63;5.70;;;;;;;;;;5014806;28;20051;-68
2022/07/30 00:27:13;;;;;;;6.32;5.30;;;;;;;;;;5007913;28;20042;-69
2022/07/30 00:29:39;;;;;;;7.50;5.25;;;;;;;;;;5018504;28;20033;-67
2022/07/30 00:32:05;;;;;;;8.82;5.55;;;;;;;;;;5012202;28;20021;-67
2022/07/30 00:34:31;;;;;;;7.35;5.55;;;;;;;;;;5009213;28;20122;-67
2022/07/30 00:36:58;;;;;;;12.40;5.63;;;;;;;;;;5012762;28;20417;-67
2022/07/30 00:39:24;;;;;;;8.25;5.53;;;;;;;;;;5009963;28;20041;-67
2022/07/30 00:41:54;;;;;;;8.20;5.65;;;;;;;;;;5005852;28;20018;-67
2022/07/30 00:44:21;;;;;;;6.72;5.30;;;;;;;;;;5004453;28;20045;-67
2022/07/30 00:46:47;;;;;;;7.82;5.50;;;;;;;;;;5002246;28;20101;-67
2022/07/30 00:49:13;;;;;;;8.57;5.65;;;;;;;;;;5001977;28;20676;-69
2022/07/30 00:51:39;;;;;;;6.90;5.53;;;;;;;;;;5006753;28;20010;-69
2022/07/30 00:54:05;;;;;;;8.45;5.95;;;;;;;;;;5009683;28;20477;-67
2022/07/30 00:56:31;;;;;;;7.57;5.85;;;;;;;;;;5006228;28;20038;-68
2022/07/30 00:58:58;;;;;;;12.45;5.78;;;;;;;;;;5006997;28;20542;-68
2022/07/30 01:01:24;;;;;;;9.20;5.88;;;;;;;;;;5007649;28;20079;-68
2022/07/30 01:03:50;;;;;;;7.22;6.25;;;;;;;;;;5011383;28;20030;-67
2022/07/30 01:06:16;;;;;;;8.10;5.78;;;;;;;;;;5006228;28;20030;-67
2022/07/30 01:08:42;;;;;;;8.00;6.07;;;;;;;;;;5004905;28;20026;-67
2022/07/30 01:11:09;;;;;;;9.30;5.57;;;;;;;;;;5005347;28;20038;-67
2022/07/30 01:13:35;;;;;;;10.18;6.63;;;;;;;;;;5009860;28;20128;-68
2022/07/30 01:16:01;;;;;;;9.38;6.63;;;;;;;;;;5008213;28;20018;-67
2022/07/30 01:19:47;;;;;;;9.82;5.47;;;;;;;;;;5005538;28;20026;-67
2022/07/30 01:21:15;;;;;;;8.50;5.80;;;;;;;;;;5007757;28;20065;-67
2022/07/30 01:23:43;;;;;;;12.02;6.13;;;;;;;;;;5011418;28;20037;-67
2022/07/30 01:26:11;;;;;;;10.52;6.45;;;;;;;;;;5007367;28;20034;-67
2022/07/30 01:28:42;;;;;;;8.60;6.47;;;;;;;;;;5000330;28;20180;-67
2022/07/30 01:31:10;;;;;;;8.63;5.93;;;;;;;;;;5009740;28;20481;-67
2022/07/30 01:33:38;;;;;;;8.98;6.05;;;;;;;;;;5008838;28;20557;-67
2022/07/30 01:36:07;;;;;;;9.00;6.40;;;;;;;;;;5011660;28;20029;-67
2022/07/30 01:38:34;;;;;;;7.32;5.43;;;;;;;;;;5010011;28;20017;-68
2022/07/30 01:41:00;;;;;;;10.05;6.00;;;;;;;;;;5011731;28;20029;-67
2022/07/30 01:43:27;;;;;;;11.32;6.50;;;;;;;;;;5004680;28;20061;-68
2022/07/30 01:45:54;;;;;;;11.85;6.60;;;;;;;;;;5006670;28;20051;-68
2022/07/30 01:48:21;;;;;;;8.52;5.22;;;;;;;;;;5003928;28;20045;-67
2022/07/30 01:50:49;;;;;;;14.05;6.38;;;;;;;;;;5000921;28;20382;-68
2022/07/30 01:53:17;;;;;;;7.90;5.72;;;;;;;;;;4997843;28;20069;-69
2022/07/30 01:55:45;;;;;;;6.95;5.88;;;;;;;;;;5001725;28;20030;-68
2022/07/30 01:58:12;;;;;;;7.63;5.40;;;;;;;;;;5004818;28;20069;-68
2022/07/30 02:00:38;;;;;;;8.13;5.63;;;;;;;;;;5003434;28;20060;-67
2022/07/30 02:03:07;;;;;;;7.45;5.50;;;;;;;;;;5001502;28;20037;-68
2022/07/30 02:05:34;;;;;;;7.65;5.38;;;;;;;;;;5003363;28;20032;-68
2022/07/30 02:08:06;;;;;;;7.47;5.35;;;;;;;;;;4998623;28;20350;-68
2022/07/30 02:10:35;;;;;;;7.50;5.35;;;;;;;;;;5004894;28;20026;-67
2022/07/30 02:13:04;;;;;;;8.50;5.60;;;;;;;;;;5002963;28;20088;-68
2022/07/30 02:15:49;;;;;;;10.82;6.25;;;;;;;;;;5001961;28;20108;-68
2022/07/30 02:18:31;;;;;;;12.48;6.18;;;;;;;;;;4998681;28;20347;-68
2022/07/30 02:21:03;;;;;;;9.95;5.68;;;;;;;;;;5003297;28;20026;-68
2022/07/30 02:23:30;;;;;;;9.30;5.43;;;;;;;;;;5002286;28;20037;-68
2022/07/30 02:25:59;;;;;;;6.43;4.80;;;;;;;;;;5004576;28;20045;-69
2022/07/30 02:28:26;;;;;;;9.98;5.93;;;;;;;;;;4993354;28;20018;-67
2022/07/30 02:30:53;;;;;;;9.93;5.60;;;;;;;;;;5007149;28;20045;-68
2022/07/30 02:33:26;;;;;;;8.55;5.07;;;;;;;;;;5006492;28;20038;-68
2022/07/30 02:35:53;;;;;;;12.40;5.63;;;;;;;;;;5005350;28;20112;-67
2022/07/30 02:38:20;;;;;;;7.50;5.60;;;;;;;;;;5007271;28;20018;-68
2022/07/30 02:40:47;;;;;;;8.23;5.10;;;;;;;;;;5006815;28;20390;-67
2022/07/30 02:43:19;;;;;;;10.52;5.22;;;;;;;;;;5006423;28;20041;-67
2022/07/30 02:45:46;;;;;;;13.95;5.40;;;;;;;;;;5006916;28;20029;-67
2022/07/30 02:48:13;;;;;;;8.38;5.47;;;;;;;;;;5006111;28;20057;-67
2022/07/30 02:50:39;;;;;;;10.13;5.78;;;;;;;;;;5005596;28;20034;-69
2022/07/30 02:53:08;;;;;;;10.50;6.60;;;;;;;;;;5006656;28;20563;-68
2022/07/30 02:55:35;;;;;;;9.25;5.63;;;;;;;;;;5006369;28;20083;-68
2022/07/30 02:58:02;;;;;;;8.45;5.90;;;;;;;;;;5006821;28;20957;-68
2022/07/30 03:00:29;;;;;;;8.57;6.05;;;;;;;;;;5004518;28;20493;-68
2022/07/30 03:02:55;;;;;;;7.20;5.65;;;;;;;;;;5005429;28;20408;-67
2022/07/30 03:05:22;;;;;;;7.05;5.97;;;;;;;;;;5005575;28;20397;-67
2022/07/30 03:07:48;;;;;;;7.10;5.68;;;;;;;;;;5005788;28;20030;-68
2022/07/30 03:10:16;;;;;;;10.25;5.93;;;;;;;;;;5005291;28;20100;-68
2022/07/30 03:12:45;;;;;;;9.13;5.43;;;;;;;;;;5005976;28;20065;-68
2022/07/30 03:15:11;;;;;;;7.40;5.40;;;;;;;;;;5006103;28;20018;-68
2022/07/30 03:17:39;;;;;;;8.10;5.82;;;;;;;;;;5002974;28;20033;-67
2022/07/30 03:20:08;;;;;;;13.05;5.85;;;;;;;;;;5003714;28;20069;-67
2022/07/30 03:22:36;;;;;;;8.60;5.72;;;;;;;;;;4998209;28;20041;-69
2022/07/30 03:25:04;;;;;;;9.20;5.78;;;;;;;;;;4988003;28;20017;-67
2022/07/30 03:27:30;;;;;;;9.95;6.22;;;;;;;;;;4999414;28;20105;-68
2022/07/30 03:29:57;;;;;;;7.63;5.90;;;;;;;;;;5000835;28;20555;-68
2022/07/30 03:32:24;;;;;;;7.32;5.75;;;;;;;;;;5000899;28;20041;-68
2022/07/30 03:34:51;;;;;;;8.38;5.82;;;;;;;;;;5000560;28;20034;-68
2022/07/30 03:37:17;;;;;;;11.00;5.88;;;;;;;;;;4999369;28;20100;-67
2022/07/30 03:39:44;;;;;;;10.60;6.10;;;;;;;;;;5000365;28;20056;-67
2022/07/30 03:42:10;;;;;;;7.10;5.28;;;;;;;;;;5000633;28;20018;-68
2022/07/30 03:44:37;;;;;;;6.97;5.60;;;;;;;;;;4999784;28;20034;-68
2022/07/30 03:47:04;;;;;;;10.88;5.90;;;;;;;;;;4991992;28;20077;-67
2022/07/30 03:49:31;;;;;;;10.27;6.15;;;;;;;;;;4997807;28;20052;-68
2022/07/30 03:51:58;;;;;;;8.52;5.50;;;;;;;;;;4992358;28;20029;-67
2022/07/30 03:54:24;;;;;;;12.45;5.50;;;;;;;;;;4998406;28;20037;-67
2022/07/30 03:56:50;;;;;;;7.97;5.28;;;;;;;;;;4997096;28;20030;-67
2022/07/30 03:59:17;;;;;;;7.00;4.35;;;;;;;;;;4996353;28;20042;-67
2022/07/30 04:01:43;;;;;;;6.93;5.03;;;;;;;;;;4995699;28;20030;-67
2022/07/30 04:04:09;;;;;;;7.70;5.07;;;;;;;;;;4996475;28;20205;-68
2022/07/30 04:06:39;;;;;;;6.78;5.07;;;;;;;;;;4995493;28;20103;-67
2022/07/30 04:09:08;;;;;;;8.07;5.78;;;;;;;;;;4997769;28;20026;-68
2022/07/30 04:11:34;;;;;;;7.25;5.05;;;;;;;;;;4995806;28;20025;-67
2022/07/30 04:14:01;;;;;;;10.65;5.88;;;;;;;;;;4998199;28;20790;-73
2022/07/30 04:16:45;;;;;;;7.55;5.30;;;;;;;;;;4994527;28;20505;-68
2022/07/30 04:19:21;;;;;;;8.20;5.60;;;;;;;;;;4995929;28;20026;-67
2022/07/30 04:21:49;;;;;;;6.97;5.38;;;;;;;;;;4998283;28;20584;-67
2022/07/30 04:24:15;;;;;;;6.40;5.45;;;;;;;;;;4997063;28;20037;-66
2022/07/30 04:26:42;;;;;;;11.65;5.22;;;;;;;;;;4999598;28;20054;-70
2022/07/30 04:29:09;;;;;;;6.07;5.20;;;;;;;;;;4985587;28;20081;-68
2022/07/30 04:31:35;;;;;;;12.57;5.38;;;;;;;;;;4992391;28;20133;-69
2022/07/30 04:34:02;;;;;;;8.57;5.47;;;;;;;;;;4996580;28;20509;-71
2022/07/30 04:36:29;;;;;;;8.52;5.82;;;;;;;;;;5008137;28;20045;-67
2022/07/30 04:38:56;;;;;;;9.45;5.13;;;;;;;;;;4996680;28;20052;-72
2022/07/30 04:41:22;;;;;;;9.68;5.53;;;;;;;;;;4994199;28;20653;-72
2022/07/30 04:43:48;;;;;;;7.80;4.88;;;;;;;;;;4990871;28;20846;-71
2022/07/30 04:46:15;;;;;;;7.55;4.07;;;;;;;;;;4993132;28;20029;-70
2022/07/30 04:48:41;;;;;;;8.18;5.05;;;;;;;;;;4991824;28;20095;-68
2022/07/30 04:51:28;;;;;;;11.68;4.97;;;;;;;;;;4994751;28;20490;-69
2022/07/30 04:53:55;;;;;;;9.23;5.55;;;;;;;;;;4995388;28;20042;-67
2022/07/30 04:56:22;;;;;;;8.40;5.55;;;;;;;;;;4993588;28;20026;-67
2022/07/30 04:58:48;;;;;;;6.40;5.80;;;;;;;;;;4991836;28;20021;-67
2022/07/30 05:01:18;;;;;;;7.45;5.80;;;;;;;;;;4991692;28;20021;-67
2022/07/30 05:03:44;;;;;;;8.30;6.45;;;;;;;;;;4994307;28;20034;-68
2022/07/30 05:06:11;;;;;;;8.30;5.93;;;;;;;;;;4993109;28;20029;-67
2022/07/30 05:08:38;;;;;;;7.75;5.78;;;;;;;;;;4997002;28;20037;-68
2022/07/30 05:11:04;;;;;;;8.02;5.60;;;;;;;;;;4995537;28;20014;-68
2022/07/30 05:13:30;;;;;;;5.82;5.20;;;;;;;;;;4998059;28;20193;-68
2022/07/30 05:15:56;;;;;;;8.43;6.90;;;;;;;;;;4997601;28;20352;-67
2022/07/30 05:18:23;;;;;;;8.80;6.13;;;;;;;;;;4998685;28;20034;-71
2022/07/30 05:20:49;;;;;;;10.50;5.57;;;;;;;;;;4999127;28;20061;-70
2022/07/30 05:23:15;;;;;;;11.35;6.38;;;;;;;;;;4995533;28;20540;-70
2022/07/30 05:25:42;;;;;;;10.80;6.20;;;;;;;;;;4996851;28;20034;-71
2022/07/30 05:28:08;;;;;;;8.32;6.30;;;;;;;;;;4997680;28;20026;-70
2022/07/30 05:30:35;;;;;;;8.90;6.15;;;;;;;;;;4995231;28;20046;-70
2022/07/30 05:33:01;;;;;;;11.45;6.63;;;;;;;;;;4998040;28;20442;-70
2022/07/30 05:35:27;;;;;;;12.48;6.63;;;;;;;;;;4995524;28;20026;-70
2022/07/30 05:37:53;;;;;;;8.20;6.18;;;;;;;;;;4998372;28;20296;-70
2022/07/30 05:40:19;;;;;;;13.15;6.55;;;;;;;;;;4999554;28;20053;-69
2022/07/30 05:42:45;;;;;;;7.15;5.90;;;;;;;;;;4996862;28;20116;-70
2022/07/30 05:45:11;;;;;;;7.22;6.03;;;;;;;;;;4996647;28;20027;-70
2022/07/30 05:47:38;;;;;;;7.38;5.68;;;;;;;;;;4994801;28;20030;-70
2022/07/30 05:50:04;;;;;;;8.38;5.88;;;;;;;;;;4993560;28;20022;-69
2022/07/30 05:52:30;;;;;;;10.07;5.40;;;;;;;;;;5000279;28;20426;-70
2022/07/30 05:54:56;;;;;;;9.93;5.32;;;;;;;;;;4989054;28;20022;-71
2022/07/30 05:57:22;;;;;;;7.10;5.20;;;;;;;;;;5007018;28;20067;-71
2022/07/30 05:59:49;;;;;;;5.43;4.90;;;;;;;;;;5003601;28;20131;-70
2022/07/30 06:02:15;;;;;;;7.38;5.25;;;;;;;;;;5002764;28;20022;-70
2022/07/30 06:04:41;;;;;;;9.88;5.30;;;;;;;;;;5006690;28;20038;-69
2022/07/30 06:07:07;;;;;;;10.65;5.28;;;;;;;;;;4997089;28;20056;-70
2022/07/30 06:09:34;;;;;;;7.90;5.32;;;;;;;;;;5008301;28;20022;-69
2022/07/30 06:12:00;;;;;;;7.85;5.07;;;;;;;;;;5001015;28;20022;-69
2022/07/30 06:14:26;;;;;;;7.50;5.53;;;;;;;;;;5003439;28;20030;-70
2022/07/30 06:16:52;;;;;;;7.15;5.22;;;;;;;;;;5000751;28;20030;-73
2022/07/30 06:19:18;;;;;;;6.85;5.55;;;;;;;;;;5005849;28;20036;-70
2022/07/30 06:21:44;;;;;;;9.13;6.07;;;;;;;;;;4999545;28;20030;-68
2022/07/30 06:24:11;;;;;;;10.35;5.78;;;;;;;;;;5004020;28;20033;-67
2022/07/30 06:26:37;;;;;;;8.48;5.68;;;;;;;;;;5005270;28;20395;-67
2022/07/30 06:29:03;;;;;;;8.57;5.50;;;;;;;;;;5006907;28;20026;-67
2022/07/30 06:31:29;;;;;;;7.43;5.25;;;;;;;;;;4998436;28;20025;-69
2022/07/30 06:33:55;;;;;;;9.15;5.72;;;;;;;;;;5007651;28;20033;-69
2022/07/30 06:36:22;;;;;;;11.20;5.65;;;;;;;;;;5008824;28;20029;-68
2022/07/30 06:38:48;;;;;;;10.63;5.70;;;;;;;;;;5008606;28;20025;-67
2022/07/30 06:41:14;;;;;;;7.03;5.45;;;;;;;;;;5003412;28;20018;-67
2022/07/30 06:43:40;;;;;;;6.85;5.70;;;;;;;;;;5009472;28;20428;-68
2022/07/30 06:46:07;;;;;;;7.50;5.85;;;;;;;;;;5006607;28;20036;-68
2022/07/30 06:48:33;;;;;;;10.73;6.07;;;;;;;;;;5003623;28;20030;-68
2022/07/30 06:50:59;;;;;;;8.98;6.22;;;;;;;;;;5007400;28;20030;-67
2022/07/30 06:53:25;;;;;;;9.60;5.90;;;;;;;;;;5002749;28;20045;-67
2022/07/30 06:55:51;;;;;;;6.38;5.57;;;;;;;;;;5004073;28;20022;-68
2022/07/30 06:58:17;;;;;;;8.88;6.00;;;;;;;;;;5006501;28;20037;-68
2022/07/30 07:00:43;;;;;;;8.15;5.88;;;;;;;;;;5010047;28;20099;-68
2022/07/30 07:03:10;;;;;;;8.50;5.90;;;;;;;;;;5009146;28;20040;-68
2022/07/30 07:05:37;;;;;;;9.32;5.63;;;;;;;;;;5009015;28;20025;-67
2022/07/30 07:08:03;;;;;;;6.07;5.45;;;;;;;;;;5007863;28;20021;-68
2022/07/30 07:10:29;;;;;;;10.65;6.38;;;;;;;;;;5005731;28;20033;-68
2022/07/30 07:12:55;;;;;;;7.30;5.78;;;;;;;;;;5008179;28;20030;-68
2022/07/30 07:15:21;;;;;;;8.10;5.75;;;;;;;;;;5004036;28;20022;-67
2022/07/30 07:17:48;;;;;;;6.93;5.82;;;;;;;;;;5007429;28;20473;-68
2022/07/30 07:20:14;;;;;;;8.88;5.65;;;;;;;;;;5004158;28;20033;-68
2022/07/30 07:22:40;;;;;;;7.30;5.80;;;;;;;;;;5008628;28;20037;-69
2022/07/30 07:25:06;;;;;;;8.40;6.40;;;;;;;;;;5007677;28;20379;-67
2022/07/30 07:27:33;;;;;;;8.80;5.97;;;;;;;;;;5000935;28;20042;-68
2022/07/30 07:29:59;;;;;;;8.13;5.88;;;;;;;;;;5001894;28;20018;-68
2022/07/30 07:32:25;;;;;;;13.50;6.03;;;;;;;;;;5006087;28;20371;-67
2022/07/30 07:34:51;;;;;;;15.77;6.00;;;;;;;;;;5007020;28;20386;-68
2022/07/30 07:37:17;;;;;;;10.65;6.72;;;;;;;;;;5005013;28;20026;-67
2022/07/30 07:39:43;;;;;;;9.52;6.05;;;;;;;;;;5006474;28;20017;-68
2022/07/30 07:42:09;;;;;;;8.18;6.40;;;;;;;;;;5008500;28;20026;-68
2022/07/30 07:44:35;;;;;;;7.70;6.00;;;;;;;;;;5005249;28;20014;-68
2022/07/30 07:47:01;;;;;;;13.13;6.55;;;;;;;;;;5008625;28;20373;-67
2022/07/30 07:49:28;;;;;;;8.05;6.50;;;;;;;;;;5002311;28;20025;-69
2022/07/30 07:51:54;;;;;;;7.07;6.35;;;;;;;;;;5003138;28;20025;-68
2022/07/30 07:54:20;;;;;;;13.13;6.55;;;;;;;;;;5008829;28;20542;-68
2022/07/30 07:56:47;;;;;;;12.68;7.05;;;;;;;;;;5005848;28;20021;-71
2022/07/30 07:59:13;;;;;;;9.38;5.88;;;;;;;;;;5007368;28;20038;-69
2022/07/30 08:01:39;;;;;;;11.45;6.43;;;;;;;;;;5010102;28;20026;-67
2022/07/30 08:04:05;;;;;;;9.35;6.38;;;;;;;;;;5004484;28;20393;-70
2022/07/30 08:06:32;;;;;;;8.38;6.20;;;;;;;;;;5006747;28;20204;-67
2022/07/30 08:09:00;;;;;;;8.55;6.15;;;;;;;;;;5006867;28;20123;-68
2022/07/30 08:11:26;;;;;;;9.23;6.28;;;;;;;;;;5012236;28;20457;-69
2022/07/30 08:13:52;;;;;;;6.70;5.88;;;;;;;;;;5005638;28;20405;-69
2022/07/30 08:16:18;;;;;;;7.75;6.20;;;;;;;;;;5007008;28;20556;-67
2022/07/30 08:18:44;;;;;;;10.10;6.38;;;;;;;;;;5002659;28;20433;-68
2022/07/30 08:21:11;;;;;;;8.70;6.57;;;;;;;;;;5000707;28;20295;-67
2022/07/30 08:23:37;;;;;;;10.55;6.18;;;;;;;;;;4999170;28;20026;-67
2022/07/30 08:26:03;;;;;;;8.68;6.30;;;;;;;;;;5004920;28;20030;-67
2022/07/30 08:28:29;;;;;;;8.52;6.63;;;;;;;;;;5000041;28;20061;-68
2022/07/30 08:30:55;;;;;;;10.75;6.82;;;;;;;;;;5004892;28;20121;-68
2022/07/30 08:33:22;;;;;;;10.68;6.40;;;;;;;;;;5004786;28;20053;-68
2022/07/30 08:35:48;;;;;;;7.32;6.45;;;;;;;;;;5002999;28;20052;-69
2022/07/30 08:38:14;;;;;;;10.95;6.57;;;;;;;;;;5009676;28;20189;-69
2022/07/30 08:40:40;;;;;;;7.00;6.30;;;;;;;;;;5002734;28;20127;-68
2022/07/30 08:43:07;;;;;;;9.95;6.70;;;;;;;;;;4996451;28;20025;-68
2022/07/30 08:45:34;;;;;;;7.00;6.40;;;;;;;;;;5005329;28;20060;-68
2022/07/30 08:48:01;;;;;;;7.00;6.00;;;;;;;;;;5007980;28;20045;-68
2022/07/30 08:50:28;;;;;;;7.78;6.97;;;;;;;;;;5009862;28;20054;-67
2022/07/30 08:52:55;;;;;;;7.47;6.65;;;;;;;;;;5008526;28;20029;-67
2022/07/30 08:55:24;;;;;;;7.93;6.90;;;;;;;;;;5009954;28;20080;-67
2022/07/30 08:57:51;;;;;;;8.63;6.45;;;;;;;;;;5005227;28;20075;-68
2022/07/30 09:00:18;;;;;;;7.22;6.40;;;;;;;;;;5009398;28;20029;-67
2022/07/30 09:02:44;;;;;;;8.70;6.57;;;;;;;;;;5002090;28;20022;-68
2022/07/30 09:05:11;;;;;;;7.82;6.32;;;;;;;;;;5005309;28;20022;-68
2022/07/30 09:07:37;;;;;;;10.23;7.18;;;;;;;;;;5007038;28;20091;-68
2022/07/30 09:10:04;;;;;;;7.82;6.75;;;;;;;;;;5008626;28;20064;-67
2022/07/30 09:12:36;;;;;;;8.15;6.60;;;;;;;;;;5005028;28;20440;-67
2022/07/30 09:15:05;;;;;;;10.30;7.07;;;;;;;;;;5012561;28;20030;-68
2022/07/30 09:17:47;;;;;;;7.50;6.60;;;;;;;;;;5004869;28;20022;-67
2022/07/30 09:20:13;;;;;;;8.95;6.63;;;;;;;;;;5004330;28;20018;-68
2022/07/30 09:22:44;;;;;;;7.30;6.30;;;;;;;;;;4999193;28;20029;-67
2022/07/30 09:25:10;;;;;;;8.68;6.82;;;;;;;;;;5006135;28;20026;-69
2022/07/30 09:27:45;;;;;;;8.80;7.57;;;;;;;;;;5004394;28;20560;-68
2022/07/30 09:30:12;;;;;;;8.80;7.22;;;;;;;;;;5001205;28;20042;-67
2022/07/30 09:32:48;;;;;;;9.20;6.78;;;;;;;;;;5006758;28;20068;-67
2022/07/30 09:35:14;;;;;;;7.57;6.80;;;;;;;;;;5003490;28;20041;-68
2022/07/30 09:37:41;;;;;;;11.32;7.28;;;;;;;;;;5004793;28;20954;-68
2022/07/30 09:40:13;;;;;;;7.45;6.45;;;;;;;;;;5006535;28;20296;-67
2022/07/30 09:42:39;;;;;;;11.20;7.35;;;;;;;;;;5003558;28;20756;-68
2022/07/30 09:45:06;;;;;;;13.88;7.15;;;;;;;;;;5005627;28;20496;-67
2022/07/30 09:47:33;;;;;;;10.57;7.47;;;;;;;;;;5010299;28;20037;-68
2022/07/30 09:50:02;;;;;;;7.97;6.60;;;;;;;;;;5005538;28;20030;-67
2022/07/30 09:52:29;;;;;;;9.73;6.43;;;;;;;;;;5001125;28;20153;-67
2022/07/30 09:54:55;;;;;;;7.97;6.65;;;;;;;;;;5002513;28;20421;-67
2022/07/30 09:57:21;;;;;;;7.70;6.60;;;;;;;;;;5001741;28;20061;-68
2022/07/30 09:59:47;;;;;;;8.70;7.07;;;;;;;;;;5006040;28;20030;-68
2022/07/30 10:02:14;;;;;;;8.70;7.03;;;;;;;;;;5001031;28;20029;-67
2022/07/30 10:04:40;;;;;;;7.85;7.13;;;;;;;;;;4999568;28;20022;-67
2022/07/30 10:07:16;;;;;;;9.25;7.10;;;;;;;;;;5003729;28;20025;-68
2022/07/30 10:09:44;;;;;;;7.20;6.57;;;;;;;;;;5005291;28;20022;-68
2022/07/30 10:12:10;;;;;;;9.65;7.00;;;;;;;;;;5007736;28;20025;-67
2022/07/30 10:14:37;;;;;;;8.73;6.55;;;;;;;;;;5005383;28;20037;-67
2022/07/30 10:17:04;;;;;;;8.52;6.63;;;;;;;;;;5009229;28;20493;-67
2022/07/30 10:19:32;;;;;;;9.45;7.13;;;;;;;;;;5002636;28;20036;-68
2022/07/30 10:21:59;;;;;;;8.00;6.28;;;;;;;;;;5000094;28;20029;-68
2022/07/30 10:24:25;;;;;;;7.75;6.75;;;;;;;;;;5000417;28;20446;-68
2022/07/30 10:26:55;;;;;;;8.88;6.78;;;;;;;;;;4999587;28;20058;-68
2022/07/30 10:29:21;;;;;;;11.85;6.85;;;;;;;;;;5005228;28;20244;-68
2022/07/30 10:31:48;;;;;;;7.82;6.13;;;;;;;;;;4999875;28;20271;-68
2022/07/30 10:34:15;;;;;;;9.43;7.10;;;;;;;;;;5003083;28;20427;-69
2022/07/30 10:36:48;;;;;;;8.90;6.95;;;;;;;;;;5007597;28;20105;-67
2022/07/30 10:39:17;;;;;;;10.10;6.53;;;;;;;;;;5006684;28;20030;-67
2022/07/30 10:41:46;;;;;;;7.10;6.38;;;;;;;;;;5006138;28;20026;-68
2022/07/30 10:44:18;;;;;;;9.55;6.88;;;;;;;;;;5000626;28;20037;-68
2022/07/30 10:47:05;;;;;;;7.75;6.82;;;;;;;;;;5004739;28;20021;-68
2022/07/30 10:49:32;;;;;;;7.35;6.18;;;;;;;;;;4998661;28;20077;-74
2022/07/30 10:51:58;;;;;;;8.70;6.53;;;;;;;;;;5004217;28;20025;-75
2022/07/30 10:54:33;;;;;;;7.10;6.40;;;;;;;;;;5010070;28;20045;-70
2022/07/30 10:57:10;;;;;;;7.88;6.15;;;;;;;;;;5003843;28;20113;-75
2022/07/30 10:59:49;;;;;;;8.30;6.70;;;;;;;;;;5011078;28;20198;-74
2022/07/30 11:02:22;;;;;;;7.70;5.90;;;;;;;;;;5001805;28;20119;-73
2022/07/30 11:04:48;;;;;;;7.60;6.68;;;;;;;;;;5004809;28;20026;-75
2022/07/30 11:07:23;;;;;;;7.55;5.70;;;;;;;;;;4998399;28;20041;-76
2022/07/30 11:09:53;;;;;;;7.05;6.05;;;;;;;;;;5007974;28;20060;-76
2022/07/30 11:12:38;;;;;;;9.52;6.30;;;;;;;;;;5003196;28;20045;-74
2022/07/30 11:15:04;;;;;;;7.15;6.40;;;;;;;;;;5009217;28;20030;-70
2022/07/30 11:17:50;;;;;;;6.80;5.78;;;;;;;;;;5004324;28;20040;-69
2022/07/30 11:20:19;;;;;;;6.10;5.03;;;;;;;;;;4988289;28;20470;-76
2022/07/30 11:22:48;;;;;;;6.35;4.93;;;;;;;;;;5002953;28;20040;-73
2022/07/30 11:25:20;;;;;;;7.60;5.22;;;;;;;;;;5010782;28;20029;-75
2022/07/30 11:27:47;;;;;;;6.47;4.95;;;;;;;;;;4998521;28;20557;-68
2022/07/30 11:30:17;;;;;;;7.40;5.32;;;;;;;;;;4996731;28;20026;-73
2022/07/30 11:32:43;;;;;;;5.88;5.10;;;;;;;;;;5000039;28;20544;-73
2022/07/30 11:35:14;;;;;;;6.43;5.22;;;;;;;;;;4997447;28;20034;-69
2022/07/30 11:38:06;;;;;;;7.40;5.43;;;;;;;;;;4989037;28;20064;-75
2022/07/30 11:40:32;;;;;;;8.25;4.57;;;;;;;;;;4983251;28;20124;-75
2022/07/30 11:43:14;;;;;;;5.18;4.68;;;;;;;;;;5000333;28;20037;-75
2022/07/30 11:45:40;;;;;;;6.80;5.10;;;;;;;;;;5003520;28;20049;-70
2022/07/30 11:48:12;;;;;;;6.10;4.53;;;;;;;;;;4993301;28;20053;-75
2022/07/30 11:50:38;;;;;;;;;;;;;;;;;;4998629;28;20370;-73
2022/07/30 11:53:05;;;;;;;5.75;4.80;;;;;;;;;;5000419;28;20045;-76
2022/07/30 11:55:41;;;;;;;8.20;4.93;;;;;;;;;;4996674;28;20100;-72
2022/07/30 11:58:09;;;;;;;6.82;4.72;;;;;;;;;;5000750;28;20029;-72
2022/07/30 12:00:39;;;;;;;5.65;4.30;;;;;;;;;;4999514;28;20026;-72
2022/07/30 12:03:10;;;;;;;6.60;4.13;;;;;;;;;;5000512;28;20034;-73
2022/07/30 12:05:36;;;;;;;5.25;4.75;;;;;;;;;;4998045;28;20134;-75
2022/07/30 12:08:02;;;;;;;6.95;4.38;;;;;;;;;;5000541;28;20049;-72
2022/07/30 12:10:29;;;;;;;5.85;4.30;;;;;;;;;;5009436;28;20600;-74
2022/07/30 12:13:06;;;;;;;6.03;4.38;;;;;;;;;;5004931;28;20101;-73
2022/07/30 12:15:33;;;;;;;10.32;3.70;;;;;;;;;;5001946;28;20033;-76
2022/07/30 12:18:02;;;;;;;7.78;3.90;;;;;;;;;;5004321;28;20030;-72
2022/07/30 12:20:29;;;;;;;4.07;3.67;;;;;;;;;;5006598;28;20049;-73
2022/07/30 12:22:56;;;;;;;6.45;5.13;;;;;;;;;;5007196;28;20076;-69
2022/07/30 12:25:22;;;;;;;6.43;4.30;;;;;;;;;;5004391;28;20017;-71
2022/07/30 12:27:49;;;;;;;6.93;4.68;;;;;;;;;;5006179;28;20049;-73
2022/07/30 12:30:16;;;;;;;5.40;4.20;;;;;;;;;;5002300;28;20027;-68
2022/07/30 12:32:43;;;;;;;7.47;4.50;;;;;;;;;;5003367;28;20077;-71
2022/07/30 12:35:10;;;;;;;5.10;4.28;;;;;;;;;;5002667;28;20040;-70
2022/07/30 12:37:36;;;;;;;6.30;4.05;;;;;;;;;;5002520;28;20028;-68
2022/07/30 12:40:13;;;;;;;10.52;4.55;;;;;;;;;;5001108;28;20022;-70
2022/07/30 12:42:51;;;;;;;6.25;4.00;;;;;;;;;;5006676;28;20656;-77
2022/07/30 12:45:28;;;;;;;5.20;4.70;;;;;;;;;;4997173;28;20119;-75
2022/07/30 12:47:54;;;;;;;6.30;4.75;;;;;;;;;;4997621;28;20034;-69
2022/07/30 12:50:20;;;;;;;5.15;4.50;;;;;;;;;;4998786;28;20026;-69
2022/07/30 12:52:50;;;;;;;6.43;4.55;;;;;;;;;;5004224;28;20025;-74
2022/07/30 12:55:17;;;;;;;6.40;4.72;;;;;;;;;;4997785;28;20044;-72
2022/07/30 12:57:57;;;;;;;6.53;4.05;;;;;;;;;;5007350;28;20029;-74
2022/07/30 13:00:24;;;;;;;4.88;3.80;;;;;;;;;;5001194;28;20030;-69
2022/07/30 13:02:50;;;;;;;8.23;4.30;;;;;;;;;;5006517;28;20707;-68
2022/07/30 13:05:16;;;;;;;5.80;4.45;;;;;;;;;;5004554;28;20025;-69
2022/07/30 13:07:59;;;;;;;5.88;4.22;;;;;;;;;;4999718;28;20609;-68
2022/07/30 13:10:26;;;;;;;6.13;4.70;;;;;;;;;;5001657;28;20033;-69
2022/07/30 13:12:52;;;;;;;6.80;5.25;;;;;;;;;;4995985;28;20096;-69
2022/07/30 13:15:19;;;;;;;8.32;5.22;;;;;;;;;;4997370;28;20048;-69
2022/07/30 13:17:45;;;;;;;7.18;5.50;;;;;;;;;;4997641;28;20594;-76
2022/07/30 13:20:12;;;;;;;6.97;5.30;;;;;;;;;;5003631;28;20064;-69
2022/07/30 13:22:38;;;;;;;10.35;5.78;;;;;;;;;;5001793;28;20088;-74
2022/07/30 13:25:05;;;;;;;6.85;5.05;;;;;;;;;;5004133;28;20026;-69
2022/07/30 13:27:33;;;;;;;6.68;5.43;;;;;;;;;;4990237;28;20062;-69
2022/07/30 13:29:59;;;;;;;8.35;5.65;;;;;;;;;;4991302;28;20041;-69
2022/07/30 13:32:25;;;;;;;9.02;5.75;;;;;;;;;;4998804;28;20037;-76
2022/07/30 13:34:51;;;;;;;8.00;5.68;;;;;;;;;;4992153;28;20030;-72
2022/07/30 13:37:17;;;;;;;9.23;5.47;;;;;;;;;;4997885;28;20022;-72
2022/07/30 13:39:44;;;;;;;7.00;5.75;;;;;;;;;;4995514;28;20330;-69
2022/07/30 13:42:10;;;;;;;8.38;5.65;;;;;;;;;;4998754;28;20502;-71
2022/07/30 13:44:36;;;;;;;7.97;5.88;;;;;;;;;;4998226;28;20026;-75
2022/07/30 13:47:02;;;;;;;7.90;5.95;;;;;;;;;;4995938;28;20628;-71
2022/07/30 13:49:29;;;;;;;8.75;5.68;;;;;;;;;;4989696;28;20032;-70
2022/07/30 13:51:55;;;;;;;8.88;5.93;;;;;;;;;;4998243;28;20041;-71
2022/07/30 13:54:21;;;;;;;7.93;6.25;;;;;;;;;;4990750;28;20037;-75
2022/07/30 13:56:47;;;;;;;6.78;6.18;;;;;;;;;;4998065;28;20054;-74
2022/07/30 13:59:13;;;;;;;9.18;6.32;;;;;;;;;;4996221;28;20038;-74
2022/07/30 14:01:39;;;;;;;8.43;5.68;;;;;;;;;;4996069;28;20034;-76
2022/07/30 14:04:05;;;;;;;7.25;5.82;;;;;;;;;;4994436;28;20113;-78
2022/07/30 14:06:32;;;;;;;8.82;5.55;;;;;;;;;;4998341;28;20065;-70
2022/07/30 14:08:58;;;;;;;6.18;5.57;;;;;;;;;;4997947;28;20030;-71
2022/07/30 14:11:24;;;;;;;7.43;4.95;;;;;;;;;;4990775;28;20944;-72
2022/07/30 14:13:50;;;;;;;9.80;4.97;;;;;;;;;;4996987;28;20504;-70
2022/07/30 14:16:18;;;;;;;9.02;5.28;;;;;;;;;;4995371;28;20474;-75
2022/07/30 14:18:45;;;;;;;6.25;5.50;;;;;;;;;;4990855;28;20486;-74
2022/07/30 14:21:11;;;;;;;5.55;5.00;;;;;;;;;;4993664;28;20105;-77
2022/07/30 14:23:37;;;;;;;5.97;5.30;;;;;;;;;;5002119;28;20028;-76
2022/07/30 14:26:03;;;;;;;5.85;5.20;;;;;;;;;;5001154;28;20053;-77
2022/07/30 14:28:30;;;;;;;5.90;5.38;;;;;;;;;;5001291;28;20120;-75
2022/07/30 14:30:56;;;;;;;5.90;5.30;;;;;;;;;;5002502;28;20022;-77
2022/07/30 14:33:22;;;;;;;7.28;4.65;;;;;;;;;;4999649;28;20120;-76
2022/07/30 14:35:48;;;;;;;7.47;4.95;;;;;;;;;;5001976;28;20495;-76
2022/07/30 14:38:14;;;;;;;8.27;5.68;;;;;;;;;;5001437;28;20430;-75
2022/07/30 14:40:40;;;;;;;6.03;5.38;;;;;;;;;;4993540;28;20038;-76
2022/07/30 14:43:06;;;;;;;7.03;5.07;;;;;;;;;;4997651;28;20290;-78